createdAt,value
2023-05-15T00:02:27.951Z,49.55
2023-05-15T00:04:56.700Z,49.83
2023-05-15T00:07:25.068Z,49.39
2023-05-15T00:09:54.526Z,49.38
2023-05-15T00:12:23.025Z,49.21
2023-05-15T00:14:51.453Z,49.31
2023-05-15T00:17:20.066Z,49.43
2023-05-15T00:19:50.002Z,49.58
2023-05-15T00:22:18.470Z,49.56
2023-05-15T00:24:46.840Z,49.50
2023-05-15T00:27:15.209Z,49.80
2023-05-15T00:29:43.597Z,49.50
2023-05-15T00:32:12.064Z,49.14
2023-05-15T00:34:40.639Z,49.34
2023-05-15T00:37:10.496Z,49.40
2023-05-15T00:39:40.542Z,49.60
2023-05-15T00:42:10.514Z,50.14
2023-05-15T00:44:41.616Z,50.26
2023-05-15T00:47:12.220Z,51.15
2023-05-15T00:49:41.471Z,51.60
2023-05-15T00:52:11.286Z,51.54
2023-05-15T00:54:39.774Z,51.46
2023-05-15T00:57:10.636Z,51.06
2023-05-15T00:59:41.030Z,50.46
2023-05-15T01:02:16.418Z,50.36
2023-05-15T01:04:48.052Z,50.07
2023-05-15T01:07:18.981Z,49.63
2023-05-15T01:09:50.702Z,50.06
2023-05-15T01:12:21.021Z,49.68
2023-05-15T01:14:50.555Z,49.24
2023-05-15T01:17:19.055Z,49.02
2023-05-15T01:19:52.577Z,48.40
2023-05-15T01:22:36.262Z,48.36
2023-05-15T01:25:24.791Z,48.31
2023-05-15T01:27:58.194Z,48.04
2023-05-15T01:30:30.532Z,47.63
2023-05-15T01:33:07.151Z,47.54
2023-05-15T01:35:42.315Z,47.18
2023-05-15T01:38:20.565Z,47.01
2023-05-15T01:40:50.188Z,46.89
2023-05-15T01:43:25.803Z,46.72
2023-05-15T01:45:54.736Z,46.84
2023-05-15T01:48:24.186Z,47.11
2023-05-15T01:50:52.999Z,47.19
2023-05-15T01:53:22.894Z,46.92
2023-05-15T01:55:55.026Z,47.14
2023-05-15T01:58:28.083Z,47.08
2023-05-15T02:00:57.402Z,47.31
2023-05-15T02:03:26.367Z,47.88
2023-05-15T02:05:57.307Z,47.73
2023-05-15T02:08:28.932Z,48.03
2023-05-15T02:10:58.999Z,48.03
2023-05-15T02:13:29.730Z,48.19
2023-05-15T02:15:58.287Z,48.29
2023-05-15T02:18:28.616Z,47.95
2023-05-15T02:21:01.149Z,48.02
2023-05-15T02:23:29.810Z,48.05
2023-05-15T02:26:13.975Z,48.28
2023-05-15T02:28:49.702Z,47.82
2023-05-15T02:31:25.671Z,48.19
2023-05-15T02:34:00.594Z,48.15
2023-05-15T02:36:34.971Z,48.42
2023-05-15T02:39:04.751Z,48.21
2023-05-15T02:41:35.536Z,47.71
2023-05-15T02:44:05.754Z,47.72
2023-05-15T02:46:35.050Z,47.45
2023-05-15T02:49:04.123Z,47.62
2023-05-15T02:51:32.569Z,47.24
2023-05-15T02:54:02.814Z,47.63
2023-05-15T02:56:31.235Z,47.24
2023-05-15T02:58:59.739Z,47.17
2023-05-15T03:01:29.665Z,46.97
2023-05-15T03:03:58.215Z,47.07
2023-05-15T03:06:26.737Z,46.57
2023-05-15T03:08:55.159Z,46.91
2023-05-15T03:11:30.828Z,46.79
2023-05-15T03:14:00.433Z,46.94
2023-05-15T03:16:30.586Z,47.40
2023-05-15T03:18:59.047Z,47.37
2023-05-15T03:21:27.456Z,47.36
2023-05-15T03:23:56.335Z,47.59
2023-05-15T03:26:24.798Z,47.58
2023-05-15T03:28:53.251Z,47.80
2023-05-15T03:31:21.634Z,47.87
2023-05-15T03:33:51.657Z,47.39
2023-05-15T03:36:20.111Z,47.17
2023-05-15T03:38:48.543Z,47.24
2023-05-15T03:41:16.991Z,47.11
2023-05-15T03:43:45.582Z,47.14
2023-05-15T03:46:14.071Z,47.33
2023-05-15T03:48:43.274Z,47.27
2023-05-15T03:51:13.187Z,47.08
2023-05-15T03:53:41.615Z,47.18
2023-05-15T03:56:10.089Z,47.14
2023-05-15T03:58:38.508Z,47.12
2023-05-15T04:01:08.016Z,47.20
2023-05-15T04:03:36.581Z,47.24
2023-05-15T04:06:05.400Z,47.40
2023-05-15T04:08:35.150Z,47.64
2023-05-15T04:11:03.572Z,47.15
2023-05-15T04:13:31.895Z,47.33
2023-05-15T04:16:01.281Z,47.36
2023-05-15T04:18:29.755Z,46.99
2023-05-15T04:20:58.124Z,46.69
2023-05-15T04:23:27.088Z,46.89
2023-05-15T04:25:57.103Z,46.65
2023-05-15T04:28:25.551Z,47.30
2023-05-15T04:30:53.943Z,47.38
2023-05-15T04:33:22.350Z,47.42
2023-05-15T04:35:51.014Z,47.46
2023-05-15T04:38:19.546Z,47.33
2023-05-15T04:40:47.988Z,46.90
2023-05-15T04:43:18.994Z,46.44
2023-05-15T04:45:47.530Z,46.56
2023-05-15T04:48:15.941Z,46.86
2023-05-15T04:50:44.406Z,47.20
2023-05-15T04:53:12.806Z,47.97
2023-05-15T04:55:41.305Z,47.71
2023-05-15T04:58:09.904Z,47.99
2023-05-15T05:00:40.446Z,48.28
2023-05-15T05:03:08.968Z,48.58
2023-05-15T05:05:37.508Z,48.93
2023-05-15T05:08:06.268Z,49.15
2023-05-15T05:10:35.665Z,48.37
2023-05-15T05:13:04.410Z,48.96
2023-05-15T05:15:32.866Z,49.47
2023-05-15T05:18:03.083Z,48.67
2023-05-15T05:20:31.628Z,48.84
2023-05-15T05:23:00.049Z,49.30
2023-05-15T05:25:30.878Z,48.91
2023-05-15T05:27:59.249Z,48.89
2023-05-15T05:30:27.719Z,48.99
2023-05-15T05:32:57.245Z,48.18
2023-05-15T05:35:28.389Z,47.95
2023-05-15T05:37:56.762Z,48.11
2023-05-15T05:40:25.117Z,47.39
2023-05-15T05:42:53.534Z,46.66
2023-05-15T05:45:21.907Z,46.28
2023-05-15T05:47:50.473Z,45.97
2023-05-15T05:50:18.883Z,45.14
2023-05-15T05:52:49.764Z,45.86
2023-05-15T05:55:18.469Z,45.66
2023-05-15T05:57:47.996Z,45.77
2023-05-15T06:00:17.312Z,46.06
2023-05-15T06:02:46.982Z,45.20
2023-05-15T06:05:15.517Z,43.96
2023-05-15T06:07:44.454Z,43.24
2023-05-15T06:10:14.219Z,41.76
2023-05-15T06:12:42.724Z,40.77
2023-05-15T06:15:12.178Z,39.80
2023-05-15T06:17:40.619Z,37.76
2023-05-15T06:20:10.320Z,37.52
2023-05-15T06:22:38.997Z,37.40
2023-05-15T06:25:13.730Z,37.75
2023-05-15T06:27:43.573Z,36.70
2023-05-15T06:30:13.310Z,36.21
2023-05-15T06:32:41.959Z,35.08
2023-05-15T06:35:11.422Z,34.87
2023-05-15T06:37:39.990Z,34.11
2023-05-15T06:40:09.601Z,33.28
2023-05-15T06:42:38.056Z,32.80
2023-05-15T06:45:09.420Z,32.56
2023-05-15T06:47:37.901Z,31.60
2023-05-15T06:50:07.008Z,32.38
2023-05-15T06:52:35.439Z,31.49
2023-05-15T06:55:04.114Z,31.38
2023-05-15T06:57:32.519Z,30.82
2023-05-15T07:00:00.963Z,30.95
2023-05-15T07:02:31.301Z,30.14
2023-05-15T07:04:59.773Z,30.89
2023-05-15T07:07:28.553Z,31.51
2023-05-15T07:09:57.004Z,30.78
2023-05-15T07:12:26.038Z,31.04
2023-05-15T07:14:54.507Z,31.53
2023-05-15T07:17:23.083Z,31.71
2023-05-15T07:19:52.980Z,32.00
2023-05-15T07:22:21.315Z,31.13
2023-05-15T07:24:49.733Z,31.59
2023-05-15T07:27:18.086Z,31.61
2023-05-15T07:29:46.466Z,31.57
2023-05-15T07:32:14.946Z,31.74
2023-05-15T07:34:43.317Z,31.28
2023-05-15T07:37:14.454Z,30.83
2023-05-15T07:39:43.907Z,31.19
2023-05-15T07:42:12.301Z,31.86
2023-05-15T07:44:42.365Z,31.15
2023-05-15T07:47:12.187Z,30.84
2023-05-15T07:49:40.570Z,31.03
2023-05-15T07:52:09.272Z,30.03
2023-05-15T07:54:39.657Z,29.46
2023-05-15T07:57:09.462Z,31.25
2023-05-15T07:59:38.137Z,30.44
2023-05-15T08:02:06.679Z,30.43
2023-05-15T08:04:35.212Z,30.42
2023-05-15T08:07:03.660Z,29.67
2023-05-15T08:09:32.130Z,30.26
2023-05-15T08:12:21.352Z,30.86
2023-05-15T08:14:50.982Z,31.76
2023-05-15T08:17:19.650Z,31.78
2023-05-15T08:19:48.427Z,31.67
2023-05-15T08:22:17.238Z,31.74
2023-05-15T08:24:46.381Z,31.87
2023-05-15T08:27:15.078Z,32.81
2023-05-15T08:29:45.237Z,31.45
2023-05-15T08:32:13.739Z,32.74
2023-05-15T08:34:42.251Z,33.23
2023-05-15T08:37:10.772Z,32.63
2023-05-15T08:39:39.258Z,32.74
2023-05-15T08:42:16.010Z,32.08
2023-05-15T08:44:45.956Z,32.75
2023-05-15T08:47:16.202Z,32.61
2023-05-15T08:49:52.811Z,32.25
2023-05-15T08:52:21.359Z,33.38
2023-05-15T08:54:50.828Z,32.34
2023-05-15T08:57:21.782Z,31.72
2023-05-15T08:59:54.001Z,32.65
2023-05-15T09:02:23.127Z,33.27
2023-05-15T09:04:51.605Z,33.29
2023-05-15T09:07:20.161Z,34.78
2023-05-15T09:09:49.161Z,32.11
2023-05-15T09:12:18.468Z,31.89
2023-05-15T09:14:47.227Z,31.96
2023-05-15T09:17:17.087Z,31.38
2023-05-15T09:19:45.652Z,30.60
2023-05-15T09:22:18.560Z,31.41
2023-05-15T09:24:48.464Z,30.59
2023-05-15T09:27:16.880Z,31.16
2023-05-15T09:29:45.490Z,30.97
2023-05-15T09:32:15.649Z,29.70
2023-05-15T09:34:46.575Z,30.22
2023-05-15T09:37:31.173Z,28.67
2023-05-15T09:40:09.769Z,29.16
2023-05-15T09:42:38.927Z,29.68
2023-05-15T09:45:18.312Z,28.13
2023-05-15T09:47:47.611Z,29.18
2023-05-15T09:50:22.247Z,29.83
2023-05-15T09:52:50.980Z,28.21
2023-05-15T09:55:20.690Z,28.82
2023-05-15T09:58:07.972Z,28.23
2023-05-15T10:00:47.261Z,27.41
2023-05-15T10:03:20.238Z,27.54
2023-05-15T10:05:50.209Z,27.68
2023-05-15T10:08:28.557Z,27.91
2023-05-15T10:11:00.054Z,28.21
2023-05-15T10:13:32.381Z,27.90
2023-05-15T10:16:03.638Z,27.45
2023-05-15T10:18:37.395Z,27.36
2023-05-15T10:21:09.064Z,27.46
2023-05-15T10:23:38.954Z,27.21
2023-05-15T10:26:12.488Z,27.76
2023-05-15T10:28:44.696Z,28.15
2023-05-15T10:31:14.375Z,28.28
2023-05-15T10:33:43.286Z,27.26
2023-05-15T10:36:14.606Z,27.80
2023-05-15T10:38:44.553Z,27.45
2023-05-15T10:41:17.744Z,27.31
2023-05-15T10:43:48.116Z,26.82
2023-05-15T10:46:17.461Z,26.83
2023-05-15T10:48:45.983Z,27.30
2023-05-15T10:51:25.120Z,27.21
2023-05-15T10:53:55.061Z,27.76
2023-05-15T10:56:28.036Z,27.35
2023-05-15T10:58:57.187Z,26.98
2023-05-15T11:01:33.198Z,26.38
2023-05-15T11:04:13.089Z,25.96
2023-05-15T11:06:44.379Z,26.59
2023-05-15T11:09:40.352Z,26.89
2023-05-15T11:12:13.084Z,27.04
2023-05-15T11:14:44.303Z,26.46
2023-05-15T11:17:15.440Z,26.33
2023-05-15T11:20:02.483Z,27.32
2023-05-15T11:22:36.113Z,26.56
2023-05-15T11:25:09.167Z,27.03
2023-05-15T11:27:40.927Z,27.24
2023-05-15T11:30:15.076Z,26.87
2023-05-15T11:32:50.842Z,26.99
2023-05-15T11:35:24.979Z,26.73
2023-05-15T11:37:56.518Z,25.70
2023-05-15T11:40:28.154Z,25.83
2023-05-15T11:43:08.322Z,26.68
2023-05-15T11:45:38.855Z,26.49
2023-05-15T11:48:09.704Z,25.76
2023-05-15T11:50:38.067Z,26.30
2023-05-15T11:53:09.935Z,26.00
2023-05-15T11:55:40.412Z,26.08
2023-05-15T11:58:14.330Z,26.28
2023-05-15T12:00:43.515Z,26.09
2023-05-15T12:03:19.458Z,26.62
2023-05-15T12:05:58.396Z,26.10
2023-05-15T12:08:33.724Z,26.14
2023-05-15T12:11:03.099Z,27.03
2023-05-15T12:13:32.113Z,26.59
2023-05-15T12:16:01.136Z,26.41
2023-05-15T12:18:29.576Z,26.29
2023-05-15T12:20:58.170Z,25.84
2023-05-15T12:23:28.786Z,26.38
2023-05-15T12:26:02.181Z,26.57
2023-05-15T12:28:31.469Z,26.87
2023-05-15T12:31:00.778Z,25.95
2023-05-15T12:33:30.451Z,26.79
2023-05-15T12:36:01.445Z,27.37
2023-05-15T12:38:30.754Z,27.10
2023-05-15T12:41:01.896Z,26.52
2023-05-15T12:43:32.954Z,27.07
2023-05-15T12:46:02.539Z,27.01
2023-05-15T12:48:32.256Z,26.06
2023-05-15T12:51:07.425Z,25.89
2023-05-15T12:53:36.403Z,26.25
2023-05-15T12:56:06.604Z,26.49
2023-05-15T12:58:35.261Z,26.15
2023-05-15T13:01:05.070Z,26.91
2023-05-15T13:03:34.488Z,26.96
2023-05-15T13:06:04.483Z,26.46
2023-05-15T13:08:33.068Z,27.28
2023-05-15T13:11:01.860Z,26.56
2023-05-15T13:13:50.340Z,26.93
2023-05-15T13:16:23.557Z,27.27
2023-05-15T13:18:52.405Z,28.23
2023-05-15T13:21:21.858Z,27.89
2023-05-15T13:23:50.406Z,27.51
2023-05-15T13:26:18.865Z,27.94
2023-05-15T13:28:47.311Z,28.10
2023-05-15T13:31:17.407Z,26.97
2023-05-15T13:33:45.937Z,27.77
2023-05-15T13:36:14.358Z,26.44
2023-05-15T13:38:42.778Z,26.22
2023-05-15T13:41:12.233Z,26.02
2023-05-15T13:43:40.701Z,26.14
2023-05-15T13:46:09.002Z,26.49
2023-05-15T13:48:39.260Z,27.14
2023-05-15T13:51:07.736Z,26.71
2023-05-15T13:53:36.122Z,26.94
2023-05-15T13:56:04.655Z,27.83
2023-05-15T13:58:33.266Z,28.32
2023-05-15T14:01:07.167Z,28.02
2023-05-15T14:03:35.834Z,28.97
2023-05-15T14:06:06.459Z,28.75
2023-05-15T14:08:35.110Z,29.31
2023-05-15T14:11:05.641Z,29.33
2023-05-15T14:13:36.168Z,29.02
2023-05-15T14:16:04.574Z,29.91
2023-05-15T14:18:32.977Z,29.63
2023-05-15T14:21:01.409Z,28.25
2023-05-15T14:23:31.204Z,28.59
2023-05-15T14:26:00.628Z,28.31
2023-05-15T14:28:29.013Z,28.94
2023-05-15T14:30:57.882Z,29.50
2023-05-15T14:33:26.782Z,29.05
2023-05-15T14:35:55.284Z,29.98
2023-05-15T14:38:23.707Z,29.07
2023-05-15T14:40:53.678Z,28.72
2023-05-15T14:43:22.132Z,28.55
2023-05-15T14:45:50.544Z,28.44
2023-05-15T14:48:18.984Z,28.98
2023-05-15T14:50:47.501Z,27.76
2023-05-15T14:53:15.855Z,27.82
2023-05-15T14:55:44.295Z,27.83
2023-05-15T14:58:14.320Z,28.32
2023-05-15T15:00:42.858Z,28.47
2023-05-15T15:03:12.420Z,27.68
2023-05-15T15:05:41.046Z,29.10
2023-05-15T15:08:11.140Z,29.16
2023-05-15T15:10:42.009Z,28.68
2023-05-15T15:13:13.085Z,28.12
2023-05-15T15:15:42.918Z,27.82
2023-05-15T15:18:11.349Z,27.91
2023-05-15T15:20:39.822Z,28.84
2023-05-15T15:23:08.135Z,28.08
2023-05-15T15:25:36.529Z,28.04
2023-05-15T15:28:05.015Z,28.07
2023-05-15T15:30:33.539Z,28.06
2023-05-15T15:33:03.403Z,28.03
2023-05-15T15:35:31.852Z,28.54
2023-05-15T15:38:01.235Z,28.74
2023-05-15T15:40:29.929Z,27.41
2023-05-15T15:42:58.440Z,26.81
2023-05-15T15:45:26.931Z,27.91
2023-05-15T15:47:55.362Z,27.56
2023-05-15T15:50:25.588Z,27.51
2023-05-15T15:52:54.239Z,27.58
2023-05-15T15:55:22.701Z,27.42
2023-05-15T15:57:51.237Z,27.64
2023-05-15T16:00:19.932Z,27.58
2023-05-15T16:02:48.367Z,27.77
2023-05-15T16:05:17.860Z,28.48
2023-05-15T16:07:48.002Z,28.53
2023-05-15T16:10:16.546Z,27.99
2023-05-15T16:12:45.977Z,27.52
2023-05-15T16:15:23.012Z,27.43
2023-05-15T16:17:54.327Z,27.74
2023-05-15T16:20:23.406Z,27.53
2023-05-15T16:22:53.311Z,27.03
2023-05-15T16:25:21.938Z,27.24
2023-05-15T16:27:50.312Z,26.99
2023-05-15T16:30:18.731Z,26.70
2023-05-15T16:32:48.604Z,27.11
2023-05-15T16:35:17.431Z,27.20
2023-05-15T16:37:45.911Z,28.05
2023-05-15T16:40:16.003Z,29.11
2023-05-15T16:42:44.614Z,27.88
2023-05-15T16:45:13.046Z,28.54
2023-05-15T16:47:41.576Z,27.54
2023-05-15T16:50:10.788Z,27.77
2023-05-15T16:52:45.452Z,28.35
2023-05-15T16:55:17.907Z,28.38
2023-05-15T16:57:47.218Z,28.36
2023-05-15T17:00:17.073Z,28.37
2023-05-15T17:02:45.850Z,29.18
2023-05-15T17:05:15.391Z,29.32
2023-05-15T17:07:45.309Z,29.00
2023-05-15T17:10:15.558Z,28.40
2023-05-15T17:12:44.044Z,28.02
2023-05-15T17:15:13.274Z,28.37
2023-05-15T17:17:41.853Z,28.47
2023-05-15T17:20:11.431Z,27.97
2023-05-15T17:22:39.914Z,27.99
2023-05-15T17:25:08.919Z,28.25
2023-05-15T17:27:41.457Z,28.43
2023-05-15T17:30:11.222Z,28.36
2023-05-15T17:32:40.627Z,28.35
2023-05-15T17:35:10.339Z,28.14
2023-05-15T17:37:38.960Z,27.99
2023-05-15T17:40:10.432Z,27.90
2023-05-15T17:42:40.240Z,28.51
2023-05-15T17:45:10.664Z,28.26
2023-05-15T17:47:39.179Z,28.31
2023-05-15T17:50:09.330Z,28.96
2023-05-15T17:52:38.284Z,28.60
2023-05-15T17:55:07.828Z,29.06
2023-05-15T17:57:36.226Z,28.85
2023-05-15T18:00:07.268Z,28.74
2023-05-15T18:02:40.550Z,29.13
2023-05-15T18:05:10.346Z,30.11
2023-05-15T18:07:38.774Z,29.42
2023-05-15T18:10:08.945Z,29.34
2023-05-15T18:12:38.348Z,30.00
2023-05-15T18:15:09.363Z,30.17
2023-05-15T18:17:37.883Z,30.21
2023-05-15T18:20:07.489Z,29.89
2023-05-15T18:22:36.000Z,30.22
2023-05-15T18:25:04.546Z,30.33
2023-05-15T18:27:32.964Z,30.06
2023-05-15T18:30:01.501Z,29.96
2023-05-15T18:32:31.363Z,30.13
2023-05-15T18:35:00.202Z,30.33
2023-05-15T18:37:28.692Z,30.44
2023-05-15T18:39:58.812Z,30.35
2023-05-15T18:42:27.448Z,30.52
2023-05-15T18:44:55.870Z,30.61
2023-05-15T18:47:24.243Z,31.32
2023-05-15T18:49:54.135Z,31.52
2023-05-15T18:52:22.688Z,31.47
2023-05-15T18:54:52.635Z,32.36
2023-05-15T18:57:21.080Z,32.88
2023-05-15T18:59:50.953Z,32.36
2023-05-15T19:02:19.424Z,31.83
2023-05-15T19:04:47.848Z,32.05
2023-05-15T19:07:17.833Z,32.08
2023-05-15T19:09:46.252Z,32.82
2023-05-15T19:12:14.676Z,33.02
2023-05-15T19:14:43.061Z,31.52
2023-05-15T19:17:11.548Z,31.53
2023-05-15T19:19:39.990Z,31.56
2023-05-15T19:22:08.321Z,31.39
2023-05-15T19:24:38.122Z,31.58
2023-05-15T19:27:07.660Z,31.75
2023-05-15T19:29:35.950Z,31.53
2023-05-15T19:32:05.022Z,31.84
2023-05-15T19:34:33.455Z,32.51
2023-05-15T19:37:01.916Z,32.74
2023-05-15T19:39:30.318Z,33.30
2023-05-15T19:42:00.087Z,33.18
2023-05-15T19:44:28.553Z,33.16
2023-05-15T19:46:57.930Z,33.00
2023-05-15T19:49:26.307Z,33.34
2023-05-15T19:51:54.772Z,33.94
2023-05-15T19:54:23.072Z,33.73
2023-05-15T19:56:51.500Z,34.01
2023-05-15T19:59:21.274Z,33.95
2023-05-15T20:01:49.788Z,34.00
2023-05-15T20:04:19.244Z,33.45
2023-05-15T20:06:47.687Z,33.79
2023-05-15T20:09:16.201Z,33.50
2023-05-15T20:11:45.268Z,33.87
2023-05-15T20:14:16.026Z,34.17
2023-05-15T20:16:46.030Z,34.45
2023-05-15T20:19:14.660Z,34.64
2023-05-15T20:21:44.223Z,34.42
2023-05-15T20:24:12.677Z,35.25
2023-05-15T20:26:41.938Z,35.38
2023-05-15T20:29:10.795Z,35.42
2023-05-15T20:31:40.552Z,35.86
2023-05-15T20:34:15.269Z,35.76
2023-05-15T20:36:43.772Z,36.02
2023-05-15T20:39:12.544Z,36.11
2023-05-15T20:41:41.080Z,36.51
2023-05-15T20:44:09.449Z,36.23
2023-05-15T20:46:40.124Z,36.53
2023-05-15T20:49:11.294Z,36.40
2023-05-15T20:51:41.959Z,36.84
2023-05-15T20:54:10.499Z,37.17
2023-05-15T20:56:38.848Z,37.52
2023-05-15T20:59:07.336Z,37.55
2023-05-15T21:01:36.856Z,38.04
2023-05-15T21:04:05.488Z,37.74
2023-05-15T21:06:36.101Z,38.24
2023-05-15T21:09:04.683Z,38.66
2023-05-15T21:11:34.047Z,38.97
2023-05-15T21:14:02.582Z,39.16
2023-05-15T21:16:31.133Z,39.10
2023-05-15T21:19:01.326Z,38.16
2023-05-15T21:21:29.774Z,38.04
2023-05-15T21:24:02.629Z,38.19
2023-05-15T21:26:31.300Z,38.60
2023-05-15T21:29:00.693Z,39.06
2023-05-15T21:31:30.296Z,39.40
2023-05-15T21:33:58.747Z,39.28
2023-05-15T21:36:27.234Z,39.75
2023-05-15T21:38:55.585Z,40.45
2023-05-15T21:41:26.149Z,40.88
2023-05-15T21:43:54.526Z,40.54
2023-05-15T21:46:22.934Z,40.41
2023-05-15T21:48:51.435Z,40.36
2023-05-15T21:51:20.869Z,40.38
2023-05-15T21:53:49.339Z,40.23
2023-05-15T21:56:17.782Z,39.83
2023-05-15T21:58:47.832Z,39.66
2023-05-15T22:01:16.508Z,39.75
2023-05-15T22:03:45.445Z,40.20
2023-05-15T22:06:14.084Z,40.17
2023-05-15T22:08:42.458Z,40.38
2023-05-15T22:11:10.896Z,40.62
2023-05-15T22:13:39.413Z,40.44
2023-05-15T22:16:09.731Z,40.44
2023-05-15T22:18:38.258Z,40.22
2023-05-15T22:21:06.972Z,40.62
2023-05-15T22:23:35.389Z,40.70
2023-05-15T22:26:03.818Z,41.20
2023-05-15T22:28:32.230Z,40.94
2023-05-15T22:31:01.705Z,41.23
2023-05-15T22:33:31.938Z,41.19
2023-05-15T22:36:00.425Z,41.33
2023-05-15T22:38:28.940Z,41.26
2023-05-15T22:40:57.373Z,41.61
2023-05-15T22:43:25.817Z,41.58
2023-05-15T22:45:54.331Z,41.36
2023-05-15T22:48:23.222Z,41.61
2023-05-15T22:50:54.084Z,42.41
2023-05-15T22:53:22.493Z,42.37
2023-05-15T22:55:51.115Z,42.47
2023-05-15T22:58:19.608Z,42.55
2023-05-15T23:00:48.053Z,42.67
2023-05-15T23:03:16.593Z,42.26
2023-05-15T23:05:45.381Z,42.37
2023-05-15T23:08:51.447Z,42.44
2023-05-15T23:11:21.764Z,42.26
2023-05-15T23:13:50.180Z,42.19
2023-05-15T23:16:18.724Z,42.64
2023-05-15T23:18:47.246Z,43.18
2023-05-15T23:21:15.688Z,43.22
2023-05-15T23:23:44.870Z,42.89
2023-05-15T23:26:13.620Z,43.23
2023-05-15T23:28:43.505Z,43.25
2023-05-15T23:31:14.499Z,43.08
2023-05-15T23:33:43.163Z,42.81
2023-05-15T23:36:11.573Z,42.79
2023-05-15T23:38:41.288Z,42.80
2023-05-15T23:41:09.698Z,42.67
2023-05-15T23:43:38.333Z,42.70
2023-05-15T23:46:08.315Z,42.45
2023-05-15T23:48:36.783Z,42.68
2023-05-15T23:51:05.235Z,42.63
2023-05-15T23:53:33.714Z,42.56
2023-05-15T23:56:02.043Z,42.81
2023-05-15T23:58:31.310Z,42.77
